createdAt,value
2018-12-24T00:01:00.448Z,0.20
2018-12-24T00:03:29.756Z,0.30
2018-12-24T00:05:59.005Z,0.40
2018-12-24T00:08:28.257Z,0.60
2018-12-24T00:10:57.482Z,0.30
2018-12-24T00:13:26.730Z,1.27
2018-12-24T00:15:55.958Z,0.50
2018-12-24T00:18:25.191Z,0.80
2018-12-24T00:20:54.438Z,0.70
2018-12-24T00:23:23.678Z,0.50
2018-12-24T00:25:52.933Z,0.43
2018-12-24T00:28:22.241Z,0.20
2018-12-24T00:30:51.485Z,1.43
2018-12-24T00:33:20.724Z,0.60
2018-12-24T00:35:49.989Z,1.40
2018-12-24T00:38:19.207Z,0.77
2018-12-24T00:40:48.448Z,1.40
2018-12-24T00:43:17.680Z,3.63
2018-12-24T00:45:46.924Z,1.90
2018-12-24T00:48:16.154Z,1.60
2018-12-24T00:50:45.402Z,1.20
2018-12-24T00:53:14.642Z,0.13
2018-12-24T00:55:43.898Z,2.20
2018-12-24T00:58:13.136Z,2.17
2018-12-24T01:00:42.379Z,1.03
2018-12-24T01:03:11.608Z,0.67
2018-12-24T01:05:40.853Z,0.43
2018-12-24T01:08:10.097Z,2.00
2018-12-24T01:10:39.336Z,1.03
2018-12-24T01:13:08.565Z,2.03
2018-12-24T01:15:37.809Z,1.13
2018-12-24T01:18:07.039Z,0.40
2018-12-24T01:20:36.290Z,1.13
2018-12-24T01:23:05.525Z,0.57
2018-12-24T01:25:34.772Z,1.83
2018-12-24T01:28:03.996Z,2.73
2018-12-24T01:30:33.247Z,1.13
2018-12-24T01:33:02.499Z,0.40
2018-12-24T01:35:31.729Z,0.73
2018-12-24T01:38:00.980Z,0.97
2018-12-24T01:40:30.217Z,0.50
2018-12-24T01:42:59.441Z,0.87
2018-12-24T01:45:28.695Z,0.23
2018-12-24T01:47:57.914Z,0.20
2018-12-24T01:50:27.171Z,0.20
2018-12-24T01:52:56.398Z,0.67
2018-12-24T01:55:25.645Z,0.10
2018-12-24T01:57:54.880Z,0.20
2018-12-24T02:00:24.125Z,0.10
2018-12-24T02:02:53.395Z,0.10
2018-12-24T02:05:22.646Z,0.30
2018-12-24T02:07:51.894Z,0.20
2018-12-24T02:10:21.142Z,0.27
2018-12-24T02:12:50.384Z,0.53
2018-12-24T02:15:19.634Z,0.20
2018-12-24T02:17:48.859Z,1.27
2018-12-24T02:20:18.125Z,0.10
2018-12-24T02:22:47.352Z,0.20
2018-12-24T02:25:16.616Z,0.10
2018-12-24T02:27:45.997Z,1.40
2018-12-24T02:30:15.207Z,0.60
2018-12-24T02:32:44.457Z,0.27
2018-12-24T02:35:13.688Z,0.13
2018-12-24T02:37:42.938Z,0.10
2018-12-24T02:40:12.191Z,0.30
2018-12-24T02:42:41.446Z,0.10
2018-12-24T02:45:10.682Z,0.10
2018-12-24T02:47:39.927Z,0.10
2018-12-24T02:50:09.182Z,0.30
2018-12-24T02:52:38.421Z,0.17
2018-12-24T02:55:07.651Z,0.30
2018-12-24T02:57:36.912Z,0.57
2018-12-24T03:00:07.194Z,0.20
2018-12-24T03:02:36.436Z,0.20
2018-12-24T03:05:06.033Z,0.40
2018-12-24T03:07:35.279Z,0.63
2018-12-24T03:10:05.664Z,0.10
2018-12-24T03:12:34.930Z,0.13
2018-12-24T03:15:04.604Z,0.10
2018-12-24T03:17:33.862Z,0.10
2018-12-24T03:20:03.102Z,0.10
2018-12-24T03:22:32.362Z,0.20
2018-12-24T03:25:01.578Z,2.20
2018-12-24T03:27:30.832Z,0.10
2018-12-24T03:30:00.095Z,0.10
2018-12-24T03:32:29.712Z,0.40
2018-12-24T03:34:58.947Z,0.10
2018-12-24T03:37:28.202Z,0.17
2018-12-24T03:39:57.748Z,0.20
2018-12-24T03:42:27.002Z,0.10
2018-12-24T03:44:56.245Z,0.30
2018-12-24T03:47:25.493Z,0.43
2018-12-24T03:49:54.743Z,0.10
2018-12-24T03:52:23.981Z,0.53
2018-12-24T03:54:53.223Z,0.27
2018-12-24T03:57:22.480Z,0.20
2018-12-24T03:59:51.724Z,0.27
2018-12-24T04:02:20.986Z,0.10
2018-12-24T04:04:50.228Z,0.13
2018-12-24T04:07:19.486Z,0.17
2018-12-24T04:09:48.719Z,0.20
2018-12-24T04:12:17.959Z,0.30
2018-12-24T04:14:47.207Z,0.20
2018-12-24T04:17:16.433Z,0.30
2018-12-24T04:19:45.689Z,0.40
2018-12-24T04:22:14.927Z,0.30
2018-12-24T04:24:44.179Z,0.40
2018-12-24T04:27:13.413Z,0.33
2018-12-24T04:29:42.675Z,0.20
2018-12-24T04:32:11.986Z,0.23
2018-12-24T04:34:41.242Z,0.30
2018-12-24T04:37:10.471Z,0.40
2018-12-24T04:39:39.728Z,1.37
2018-12-24T04:42:08.970Z,0.30
2018-12-24T04:44:38.217Z,2.83
2018-12-24T04:47:07.450Z,0.50
2018-12-24T04:49:36.700Z,0.77
2018-12-24T04:52:05.934Z,0.73
2018-12-24T04:54:35.171Z,0.70
2018-12-24T04:57:04.413Z,1.50
2018-12-24T04:59:33.735Z,1.60
2018-12-24T05:02:02.979Z,1.40
2018-12-24T05:04:32.237Z,1.00
2018-12-24T05:07:01.542Z,3.53
2018-12-24T05:09:30.801Z,3.57
2018-12-24T05:12:00.049Z,1.70
2018-12-24T05:14:29.288Z,1.60
2018-12-24T05:16:58.538Z,2.00
2018-12-24T05:19:27.778Z,1.00
2018-12-24T05:21:57.009Z,1.13
2018-12-24T05:24:26.266Z,0.63
2018-12-24T05:26:55.484Z,0.83
2018-12-24T05:29:24.742Z,0.80
2018-12-24T05:31:53.974Z,0.50
2018-12-24T05:34:23.224Z,0.60
2018-12-24T05:36:52.461Z,0.83
2018-12-24T05:39:21.703Z,0.30
2018-12-24T05:41:50.933Z,0.30
2018-12-24T05:44:20.194Z,0.40
2018-12-24T05:46:49.430Z,0.67
2018-12-24T05:49:18.706Z,0.20
2018-12-24T05:51:47.948Z,0.40
2018-12-24T05:54:17.197Z,0.40
2018-12-24T05:56:46.418Z,0.30
2018-12-24T05:59:15.742Z,0.27
2018-12-24T06:01:44.993Z,0.57
2018-12-24T06:04:14.233Z,0.30
2018-12-24T06:06:43.481Z,0.30
2018-12-24T06:09:12.709Z,0.30
2018-12-24T06:11:41.954Z,1.33
2018-12-24T06:14:11.189Z,0.30
2018-12-24T06:16:40.432Z,0.40
2018-12-24T06:19:09.679Z,0.40
2018-12-24T06:21:38.923Z,0.30
2018-12-24T06:24:08.239Z,0.33
2018-12-24T06:26:37.482Z,0.30
2018-12-24T06:29:06.716Z,0.90
2018-12-24T06:31:35.971Z,1.50
2018-12-24T06:34:05.207Z,0.60
2018-12-24T06:36:34.469Z,0.40
2018-12-24T06:39:03.814Z,0.50
2018-12-24T06:41:33.083Z,1.00
2018-12-24T06:44:06.674Z,0.77
2018-12-24T06:46:33.324Z,0.60
2018-12-24T06:49:02.569Z,0.60
2018-12-24T06:51:31.888Z,0.40
2018-12-24T06:54:01.160Z,0.70
2018-12-24T06:56:30.429Z,3.37
2018-12-24T06:58:59.821Z,2.50
2018-12-24T07:01:29.119Z,2.50
2018-12-24T07:03:58.412Z,0.97
2018-12-24T07:06:27.655Z,0.87
2018-12-24T07:08:56.876Z,1.33
2018-12-24T07:11:26.158Z,2.13
2018-12-24T07:13:55.404Z,1.37
2018-12-24T07:16:24.661Z,5.33
2018-12-24T07:18:53.905Z,1.33
2018-12-24T07:21:23.181Z,1.87
2018-12-24T07:23:52.434Z,1.20
2018-12-24T07:26:21.687Z,1.20
2018-12-24T07:28:58.783Z,0.73
2018-12-24T07:31:21.924Z,0.90
2018-12-24T07:33:51.162Z,0.70
2018-12-24T07:36:20.501Z,1.23
2018-12-24T07:38:49.732Z,1.30
2018-12-24T07:41:19.010Z,2.07
2018-12-24T07:43:48.251Z,1.60
2018-12-24T07:46:17.512Z,2.30
2018-12-24T07:48:46.767Z,2.23
2018-12-24T07:51:16.315Z,3.57
2018-12-24T07:53:45.568Z,3.83
2018-12-24T07:56:14.815Z,2.70
2018-12-24T07:58:44.048Z,2.90
2018-12-24T08:01:13.281Z,2.80
2018-12-24T08:03:42.537Z,3.70
2018-12-24T08:06:11.764Z,3.40
2018-12-24T08:08:41.019Z,4.03
2018-12-24T08:11:10.252Z,3.63
2018-12-24T08:13:39.517Z,4.43
2018-12-24T08:16:08.755Z,3.87
2018-12-24T08:18:38.009Z,5.47
2018-12-24T08:21:07.260Z,2.87
2018-12-24T08:23:36.508Z,2.30
2018-12-24T08:26:05.757Z,3.57
2018-12-24T08:28:35.007Z,3.30
2018-12-24T08:31:04.268Z,2.37
2018-12-24T08:33:33.530Z,2.33
2018-12-24T08:36:02.772Z,2.93
2018-12-24T08:38:32.028Z,2.60
2018-12-24T08:41:01.282Z,1.83
2018-12-24T08:43:30.553Z,3.77
2018-12-24T08:45:59.784Z,5.67
2018-12-24T08:48:29.060Z,5.10
2018-12-24T08:50:58.293Z,8.53
2018-12-24T08:53:27.542Z,8.77
2018-12-24T08:55:56.780Z,7.13
2018-12-24T08:58:26.034Z,5.80
2018-12-24T09:00:55.275Z,5.17
2018-12-24T09:03:24.541Z,3.63
2018-12-24T09:05:53.782Z,5.07
2018-12-24T09:08:23.050Z,5.00
2018-12-24T09:10:52.294Z,8.70
2018-12-24T09:13:21.568Z,7.10
2018-12-24T09:15:50.877Z,26.20
2018-12-24T09:18:20.131Z,15.23
2018-12-24T09:20:52.802Z,13.70
2018-12-24T09:23:20.369Z,6.60
2018-12-24T09:25:49.685Z,8.83
2018-12-24T09:28:18.942Z,3.60
2018-12-24T09:30:48.822Z,4.63
2018-12-24T09:33:18.089Z,2.80
2018-12-24T09:35:47.330Z,5.13
2018-12-24T09:38:16.581Z,21.13
2018-12-24T09:40:45.857Z,21.53
2018-12-24T09:43:15.107Z,13.60
2018-12-24T09:45:44.376Z,12.97
2018-12-24T09:48:13.627Z,9.53
2018-12-24T09:50:42.888Z,7.80
2018-12-24T09:53:12.206Z,4.00
2018-12-24T09:55:41.434Z,6.93
2018-12-24T09:58:10.685Z,7.37
2018-12-24T10:00:39.950Z,12.97
2018-12-24T10:03:09.208Z,18.67
2018-12-24T10:05:38.509Z,4.60
2018-12-24T10:08:12.418Z,6.03
2018-12-24T10:10:41.688Z,9.60
2018-12-24T10:13:10.935Z,8.60
2018-12-24T10:15:40.187Z,5.30
2018-12-24T10:18:09.428Z,7.30
2018-12-24T10:20:38.708Z,6.97
2018-12-24T10:23:07.949Z,8.33
2018-12-24T10:25:37.215Z,8.97
2018-12-24T10:28:06.467Z,6.83
2018-12-24T10:30:35.762Z,4.40
2018-12-24T10:33:04.991Z,3.60
2018-12-24T10:35:34.258Z,5.03
2018-12-24T10:38:03.509Z,4.33
2018-12-24T10:40:34.215Z,4.77
2018-12-24T10:43:03.458Z,3.67
2018-12-24T10:45:32.713Z,3.83
2018-12-24T10:48:02.055Z,4.80
2018-12-24T10:50:31.320Z,4.00
2018-12-24T10:53:00.556Z,4.30
2018-12-24T10:55:29.800Z,4.60
2018-12-24T10:57:59.041Z,4.07
2018-12-24T11:00:28.284Z,5.73
2018-12-24T11:02:57.524Z,3.10
2018-12-24T11:05:26.774Z,2.87
2018-12-24T11:07:56.033Z,3.50
2018-12-24T11:10:26.043Z,3.00
2018-12-24T11:12:55.255Z,3.07
2018-12-24T11:15:25.280Z,3.70
2018-12-24T11:17:54.794Z,3.20
2018-12-24T11:20:24.098Z,3.50
2018-12-24T11:22:53.382Z,2.73
2018-12-24T11:25:22.626Z,2.50
2018-12-24T11:27:51.881Z,3.77
2018-12-24T11:30:21.142Z,3.83
2018-12-24T11:32:50.403Z,4.33
2018-12-24T11:35:19.667Z,3.10
2018-12-24T11:37:48.926Z,3.30
2018-12-24T11:40:18.188Z,3.73
2018-12-24T11:42:50.713Z,2.47
2018-12-24T11:45:21.591Z,2.43
2018-12-24T11:47:50.845Z,2.70
2018-12-24T11:50:20.092Z,2.70
2018-12-24T11:52:49.343Z,2.17
2018-12-24T11:55:18.577Z,2.63
2018-12-24T11:57:47.826Z,3.20
2018-12-24T12:00:17.090Z,3.20
2018-12-24T12:02:46.347Z,4.03
2018-12-24T12:05:15.580Z,2.93
2018-12-24T12:07:44.833Z,3.40
2018-12-24T12:10:14.083Z,3.87
2018-12-24T12:12:43.341Z,2.57
2018-12-24T12:15:13.111Z,2.50
2018-12-24T12:17:42.517Z,3.43
2018-12-24T12:20:11.765Z,3.30
2018-12-24T12:22:41.036Z,3.20
2018-12-24T12:25:10.276Z,3.90
2018-12-24T12:27:39.532Z,4.17
2018-12-24T12:30:09.839Z,5.00
2018-12-24T12:32:39.099Z,3.97
2018-12-24T12:35:08.342Z,4.57
2018-12-24T12:37:37.600Z,4.37
2018-12-24T12:40:07.407Z,2.97
2018-12-24T12:42:36.656Z,3.83
2018-12-24T12:45:05.907Z,3.37
2018-12-24T12:47:35.151Z,2.60
2018-12-24T12:50:04.460Z,3.83
2018-12-24T12:52:33.719Z,4.20
2018-12-24T12:55:02.975Z,3.80
2018-12-24T12:57:32.221Z,2.80
2018-12-24T13:00:01.548Z,3.03
2018-12-24T13:02:30.816Z,4.10
2018-12-24T13:05:00.065Z,2.83
2018-12-24T13:07:29.404Z,2.80
2018-12-24T13:09:58.630Z,2.73
2018-12-24T13:12:27.899Z,3.47
2018-12-24T13:14:57.136Z,2.37
2018-12-24T13:17:26.380Z,2.90
2018-12-24T13:19:55.618Z,3.03
2018-12-24T13:22:24.864Z,3.60
2018-12-24T13:24:54.130Z,2.43
2018-12-24T13:27:23.373Z,2.70
2018-12-24T13:29:52.618Z,3.97
2018-12-24T13:32:21.860Z,2.33
2018-12-24T13:34:51.108Z,4.83
2018-12-24T13:37:20.345Z,3.07
2018-12-24T13:39:49.600Z,2.63
2018-12-24T13:42:18.828Z,3.37
2018-12-24T13:44:48.088Z,2.93
2018-12-24T13:47:17.320Z,3.20
2018-12-24T13:49:46.565Z,4.03
2018-12-24T13:52:15.820Z,4.40
2018-12-24T13:54:45.062Z,1.80
2018-12-24T13:57:14.291Z,4.27
2018-12-24T13:59:43.549Z,2.70
2018-12-24T14:02:50.087Z,3.83
2018-12-24T14:05:19.220Z,4.10
2018-12-24T14:07:48.373Z,4.87
2018-12-24T14:10:17.500Z,2.30
2018-12-24T14:12:46.645Z,2.40
2018-12-24T14:15:15.802Z,3.00
2018-12-24T14:17:44.936Z,2.70
2018-12-24T14:20:14.117Z,2.47
2018-12-24T14:22:43.252Z,2.33
2018-12-24T14:25:12.396Z,1.80
2018-12-24T14:27:41.530Z,2.70
2018-12-24T14:30:11.535Z,3.67
2018-12-24T14:32:41.012Z,3.23
2018-12-24T14:35:10.155Z,2.53
2018-12-24T14:37:39.284Z,3.77
2018-12-24T14:40:08.615Z,3.10
2018-12-24T14:42:37.740Z,4.67
2018-12-24T14:45:07.433Z,2.67
2018-12-24T14:47:36.575Z,3.03
2018-12-24T14:50:07.439Z,4.77
2018-12-24T14:52:36.642Z,2.60
2018-12-24T14:55:05.793Z,3.00
2018-12-24T14:57:34.939Z,3.37
2018-12-24T15:00:05.397Z,2.77
2018-12-24T15:02:34.532Z,2.90
2018-12-24T15:05:03.691Z,4.13
2018-12-24T15:07:32.821Z,3.20
2018-12-24T15:10:01.962Z,2.60
2018-12-24T15:12:31.087Z,4.33
2018-12-24T15:15:00.252Z,4.23
2018-12-24T15:17:29.374Z,5.63
2018-12-24T15:19:58.519Z,4.10
2018-12-24T15:22:27.645Z,4.20
2018-12-24T15:24:56.802Z,2.97
2018-12-24T15:27:25.925Z,3.47
2018-12-24T15:29:55.070Z,2.90
2018-12-24T15:32:24.199Z,3.53
2018-12-24T15:34:53.353Z,2.40
2018-12-24T15:37:22.491Z,3.03
2018-12-24T15:39:51.632Z,3.97
2018-12-24T15:42:20.761Z,3.00
2018-12-24T15:44:49.910Z,3.43
2018-12-24T15:47:19.028Z,3.63
2018-12-24T15:49:48.177Z,4.47
2018-12-24T15:52:17.311Z,4.37
2018-12-24T15:54:46.457Z,3.77
2018-12-24T15:57:15.590Z,3.40
2018-12-24T15:59:44.740Z,4.60
2018-12-24T16:02:13.873Z,3.43
2018-12-24T16:04:43.015Z,3.57
2018-12-24T16:07:12.776Z,3.37
2018-12-24T16:09:42.086Z,2.87
2018-12-24T16:12:11.295Z,2.70
2018-12-24T16:14:40.431Z,3.80
2018-12-24T16:17:09.570Z,2.53
2018-12-24T16:19:38.721Z,3.23
2018-12-24T16:22:07.855Z,2.57
2018-12-24T16:24:36.988Z,2.87
2018-12-24T16:27:06.142Z,4.73
2018-12-24T16:29:35.276Z,3.60
2018-12-24T16:32:04.421Z,4.10
2018-12-24T16:34:33.553Z,4.70
2018-12-24T16:37:02.700Z,5.67
2018-12-24T16:39:31.841Z,3.17
2018-12-24T16:42:01.007Z,3.57
2018-12-24T16:44:30.133Z,3.53
2018-12-24T16:46:59.744Z,5.60
2018-12-24T16:49:28.983Z,7.47
2018-12-24T16:51:58.141Z,7.47
2018-12-24T16:54:27.276Z,6.57
2018-12-24T16:56:56.540Z,4.50
2018-12-24T16:59:25.678Z,4.23
2018-12-24T17:01:54.844Z,4.83
2018-12-24T17:04:23.985Z,6.23
2018-12-24T17:06:53.131Z,5.20
2018-12-24T17:09:22.273Z,4.17
2018-12-24T17:11:51.418Z,2.23
2018-12-24T17:14:20.553Z,3.97
2018-12-24T17:16:49.715Z,3.53
2018-12-24T17:19:18.851Z,5.87
2018-12-24T17:21:48.018Z,3.90
2018-12-24T17:24:17.149Z,5.07
2018-12-24T17:26:46.303Z,3.60
2018-12-24T17:29:15.441Z,3.60
2018-12-24T17:31:44.590Z,3.80
2018-12-24T17:34:13.732Z,3.90
2018-12-24T17:36:42.902Z,6.10
2018-12-24T17:39:12.036Z,4.60
2018-12-24T17:41:41.180Z,6.67
2018-12-24T17:44:10.318Z,5.87
2018-12-24T17:46:39.436Z,4.53
2018-12-24T17:49:08.566Z,3.97
2018-12-24T17:51:37.708Z,3.20
2018-12-24T17:54:06.849Z,3.23
2018-12-24T17:56:35.975Z,2.97
2018-12-24T17:59:05.116Z,2.60
2018-12-24T18:01:34.255Z,2.40
2018-12-24T18:04:03.399Z,3.67
2018-12-24T18:06:32.563Z,3.63
2018-12-24T18:09:01.706Z,2.17
2018-12-24T18:11:30.844Z,2.10
2018-12-24T18:13:59.994Z,2.70
2018-12-24T18:16:29.123Z,2.23
2018-12-24T18:18:58.280Z,1.97
2018-12-24T18:21:27.433Z,5.23
2018-12-24T18:23:56.583Z,6.20
2018-12-24T18:26:25.711Z,5.03
2018-12-24T18:28:54.891Z,6.00
2018-12-24T18:31:24.024Z,4.50
2018-12-24T18:33:53.177Z,5.97
2018-12-24T18:36:22.303Z,5.27
2018-12-24T18:38:51.448Z,4.80
2018-12-24T18:41:20.583Z,3.87
2018-12-24T18:43:49.742Z,2.23
2018-12-24T18:46:18.859Z,2.50
2018-12-24T18:48:48.001Z,3.30
2018-12-24T18:51:17.124Z,3.40
2018-12-24T18:53:46.266Z,2.27
2018-12-24T18:56:15.404Z,3.77
2018-12-24T18:58:44.544Z,5.33
2018-12-24T19:01:13.674Z,5.40
2018-12-24T19:03:42.824Z,6.27
2018-12-24T19:06:11.961Z,5.47
2018-12-24T19:08:41.115Z,6.87
2018-12-24T19:11:11.358Z,5.67
2018-12-24T19:13:40.686Z,7.63
2018-12-24T19:16:11.759Z,9.57
2018-12-24T19:18:40.925Z,10.10
2018-12-24T19:21:10.059Z,11.07
2018-12-24T19:23:39.215Z,9.67
2018-12-24T19:26:08.338Z,9.13
2018-12-24T19:28:37.483Z,10.83
2018-12-24T19:31:06.641Z,7.10
2018-12-24T19:33:35.774Z,7.87
2018-12-24T19:36:04.924Z,7.87
2018-12-24T19:38:34.053Z,7.10
2018-12-24T19:41:03.199Z,12.07
2018-12-24T19:43:32.332Z,7.97
2018-12-24T19:46:01.493Z,7.97
2018-12-24T19:48:30.633Z,6.50
2018-12-24T19:50:59.788Z,7.10
2018-12-24T19:53:28.923Z,6.23
2018-12-24T19:55:58.069Z,6.53
2018-12-24T19:58:27.229Z,7.03
2018-12-24T20:00:56.369Z,6.20
2018-12-24T20:03:25.497Z,5.30
2018-12-24T20:05:54.659Z,6.73
2018-12-24T20:08:23.788Z,5.37
2018-12-24T20:10:52.946Z,5.03
2018-12-24T20:13:22.084Z,5.93
2018-12-24T20:15:51.237Z,6.30
2018-12-24T20:18:20.380Z,4.73
2018-12-24T20:20:49.533Z,5.07
2018-12-24T20:23:18.688Z,5.47
2018-12-24T20:25:47.846Z,5.17
2018-12-24T20:28:16.982Z,2.93
2018-12-24T20:30:46.157Z,4.20
2018-12-24T20:33:15.277Z,5.47
2018-12-24T20:35:44.438Z,5.90
2018-12-24T20:38:13.569Z,5.53
2018-12-24T20:40:42.713Z,8.83
2018-12-24T20:43:11.847Z,8.00
2018-12-24T20:45:40.998Z,7.73
2018-12-24T20:48:10.155Z,8.03
2018-12-24T20:50:39.300Z,8.70
2018-12-24T20:53:08.441Z,8.60
2018-12-24T20:55:37.584Z,10.10
2018-12-24T20:58:06.745Z,8.83
2018-12-24T21:00:35.878Z,10.43
2018-12-24T21:03:05.116Z,14.93
2018-12-24T21:05:34.258Z,15.73
2018-12-24T21:08:03.410Z,14.47
2018-12-24T21:10:32.553Z,16.80
2018-12-24T21:13:01.707Z,12.23
2018-12-24T21:15:30.869Z,14.20
2018-12-24T21:18:00.035Z,14.17
2018-12-24T21:20:29.159Z,11.43
2018-12-24T21:22:58.313Z,12.20
2018-12-24T21:25:27.462Z,10.73
2018-12-24T21:27:56.652Z,10.77
2018-12-24T21:30:25.768Z,8.33
2018-12-24T21:32:54.907Z,8.67
2018-12-24T21:35:24.037Z,7.53
2018-12-24T21:37:53.178Z,7.27
2018-12-24T21:40:22.341Z,10.00
2018-12-24T21:42:54.703Z,9.13
2018-12-24T21:45:22.328Z,8.67
2018-12-24T21:47:51.496Z,10.20
2018-12-24T21:50:20.599Z,9.80
2018-12-24T21:52:49.796Z,10.87
2018-12-24T21:55:18.896Z,7.97
2018-12-24T21:57:48.035Z,9.93
2018-12-24T22:00:17.197Z,12.03
2018-12-24T22:02:46.344Z,10.80
2018-12-24T22:05:15.481Z,13.60
2018-12-24T22:07:44.627Z,13.63
2018-12-24T22:10:13.772Z,14.33
2018-12-24T22:12:42.919Z,13.70
2018-12-24T22:15:12.061Z,14.37
2018-12-24T22:17:41.207Z,15.77
2018-12-24T22:20:10.354Z,16.47
2018-12-24T22:22:39.501Z,14.20
2018-12-24T22:25:08.636Z,14.67
2018-12-24T22:27:37.782Z,16.33
2018-12-24T22:30:07.391Z,15.27
2018-12-24T22:32:36.541Z,13.77
2018-12-24T22:35:05.846Z,14.13
2018-12-24T22:37:34.992Z,15.13
2018-12-24T22:40:04.297Z,16.60
2018-12-24T22:42:33.455Z,15.13
2018-12-24T22:45:02.584Z,14.53
2018-12-24T22:47:31.738Z,14.60
2018-12-24T22:50:00.855Z,12.23
2018-12-24T22:52:29.996Z,13.63
2018-12-24T22:54:59.152Z,13.13
2018-12-24T22:57:28.282Z,12.43
2018-12-24T22:59:57.730Z,12.07
2018-12-24T23:02:26.885Z,12.80
2018-12-24T23:04:56.004Z,13.40
2018-12-24T23:07:25.157Z,11.43
2018-12-24T23:09:54.280Z,14.20
2018-12-24T23:12:23.438Z,10.17
2018-12-24T23:14:52.559Z,11.20
2018-12-24T23:17:21.717Z,13.63
2018-12-24T23:19:50.850Z,13.57
2018-12-24T23:22:19.984Z,12.23
2018-12-24T23:24:49.134Z,13.27
2018-12-24T23:27:18.270Z,11.50
2018-12-24T23:29:47.407Z,11.33
2018-12-24T23:32:16.669Z,12.07
2018-12-24T23:34:45.779Z,11.63
2018-12-24T23:37:14.936Z,13.30
2018-12-24T23:39:44.119Z,12.67
2018-12-24T23:42:13.269Z,12.67
2018-12-24T23:44:42.400Z,14.80
2018-12-24T23:47:11.540Z,14.17
2018-12-24T23:49:40.666Z,15.37
2018-12-24T23:52:09.800Z,16.37
2018-12-24T23:54:38.952Z,16.17
2018-12-24T23:57:08.091Z,17.10
2018-12-24T23:59:37.244Z,16.37
